X  Luk Metar data     EKVJ Stauning
Temperatur
6°C Temperatur
6°C Duggpunkt
100% Fugtighed



Vind
6 M/S
14 MPT
23 KM/T
12 KNOB



240°
VSV
Nuværende forhold

Let  Støvregn, Tåge Let Støvregn, Tåge
Tryk 1026.92 (hPa) - 30.32 (inHg)
Sigt 0.2 (mil) - 0.3 (km)
Lufthavn
Lufthavnskode EKVJ

Lokation: Stauning
Afstand: 14 (km)

Metar:
EKVJ 231450Z 24012KT 0300 -DZ FG VV002 06/06 Q1027

Tid: 01-23-2020 15:50 CET